Time;durP1;ratioP1;P1;durP2;ratioP2;P2;SDS_P1;SDS_P2;PMS_P1;PMS_P2;Temp;Humidity;BMP_temperature;BMP_pressure;BME280_temperature;BME280_humidity;BME280_pressure;Samples;Min_cycle;Max_cycle;Signal;HPM_P1;HPM_P2
2023/09/19 00:00:27;;;;;;;1.90;1.40;;;17.90;99.90;;;;;;6154146;23;20482;-79
2023/09/19 00:02:54;;;;;;;1.83;1.10;;;17.90;99.90;;;;;;6153868;23;20415;-77
2023/09/19 00:05:23;;;;;;;2.00;1.30;;;17.80;99.90;;;;;;6153907;23;20450;-79
2023/09/19 00:07:53;;;;;;;1.20;1.17;;;17.80;99.90;;;;;;6154461;23;20832;-79
2023/09/19 00:10:21;;;;;;;1.80;1.40;;;17.90;99.90;;;;;;6154316;23;20435;-80
2023/09/19 00:12:48;;;;;;;1.30;1.20;;;17.80;99.90;;;;;;6153681;23;20413;-80
2023/09/19 00:15:17;;;;;;;1.23;1.07;;;17.80;99.90;;;;;;6153680;23;20446;-77
2023/09/19 00:17:44;;;;;;;1.50;1.17;;;18.10;99.90;;;;;;6153870;23;20404;-79
2023/09/19 00:20:13;;;;;;;1.20;1.10;;;17.80;99.90;;;;;;6154257;23;20400;-78
2023/09/19 00:22:41;;;;;;;1.57;1.03;;;17.70;99.90;;;;;;6153777;23;20470;-79
2023/09/19 00:25:08;;;;;;;1.03;0.90;;;17.70;99.90;;;;;;6153260;23;20515;-78
2023/09/19 00:27:35;;;;;;;2.10;1.23;;;17.70;99.90;;;;;;6153368;23;20740;-79
2023/09/19 00:30:04;;;;;;;1.87;1.10;;;17.70;99.90;;;;;;6154114;23;20400;-79
2023/09/19 00:32:32;;;;;;;1.00;1.00;;;17.70;99.90;;;;;;6153463;23;20405;-78
2023/09/19 00:34:59;;;;;;;1.60;1.50;;;17.70;99.90;;;;;;6153303;23;20691;-78
2023/09/19 00:37:26;;;;;;;1.47;1.37;;;17.70;99.90;;;;;;6153077;23;20771;-77
2023/09/19 00:39:52;;;;;;;3.43;1.83;;;17.60;99.90;;;;;;6153616;23;20775;-78
2023/09/19 00:42:21;;;;;;;1.57;1.30;;;17.60;99.90;;;;;;6153587;23;20523;-79
2023/09/19 00:44:51;;;;;;;1.83;1.20;;;17.70;99.90;;;;;;6152969;23;20815;-78
2023/09/19 00:47:18;;;;;;;2.03;1.30;;;17.70;99.90;;;;;;6155133;23;20431;-78
2023/09/19 00:49:49;;;;;;;1.10;1.00;;;17.60;99.90;;;;;;6155127;23;20440;-79
2023/09/19 00:52:19;;;;;;;1.40;1.30;;;17.80;99.90;;;;;;6155214;23;20392;-78
2023/09/19 00:54:46;;;;;;;1.43;1.10;;;17.60;99.90;;;;;;6154666;23;20431;-79
2023/09/19 00:57:14;;;;;;;1.63;1.13;;;17.60;99.90;;;;;;6155033;23;20404;-79
2023/09/19 00:59:43;;;;;;;1.07;1.00;;;17.50;99.90;;;;;;6125788;23;20406;-77
2023/09/19 01:02:10;;;;;;;1.53;1.10;;;17.50;99.90;;;;;;6125599;23;20405;-80
2023/09/19 01:04:38;;;;;;;2.60;1.20;;;17.60;99.90;;;;;;6125358;23;20429;-77
2023/09/19 01:07:06;;;;;;;1.10;1.10;;;17.50;99.90;;;;;;6125692;23;20416;-77
2023/09/19 01:09:34;;;;;;;1.17;1.13;;;17.70;99.90;;;;;;6124863;23;20440;-78
2023/09/19 01:12:05;;;;;;;2.50;1.30;;;17.50;99.90;;;;;;6125698;23;20409;-78
2023/09/19 01:14:42;;;;;;;1.00;1.00;;;17.50;99.90;;;;;;6125008;23;20931;-79
2023/09/19 01:17:20;;;;;;;1.37;1.27;;;17.50;99.90;;;;;;6125154;23;21000;-78
2023/09/19 01:20:14;;;;;;;2.13;1.30;;;17.50;99.90;;;;;;6126161;23;20705;-79
2023/09/19 01:22:54;;;;;;;2.60;1.30;;;17.50;99.90;;;;;;6116481;23;20413;-79
2023/09/19 01:25:43;;;;;;;1.17;1.07;;;17.40;99.90;;;;;;6126662;23;20899;-78
2023/09/19 01:28:30;;;;;;;1.00;1.00;;;17.40;99.90;;;;;;6128715;23;20480;-78
2023/09/19 01:30:59;;;;;;;1.40;1.30;;;17.40;99.90;;;;;;6128420;23;20400;-78
2023/09/19 01:33:26;;;;;;;2.63;1.27;;;17.40;99.90;;;;;;6127989;23;20401;-79
2023/09/19 01:35:58;;;;;;;2.57;1.17;;;17.40;99.90;;;;;;6129591;23;20955;-78
2023/09/19 01:38:25;;;;;;;1.57;1.07;;;17.40;99.90;;;;;;6130926;23;20400;-78
2023/09/19 01:41:03;;;;;;;1.33;1.23;;;17.50;99.90;;;;;;6125735;23;20401;-79
2023/09/19 01:43:37;;;;;;;1.20;1.10;;;17.50;99.90;;;;;;6125508;23;20393;-80
2023/09/19 01:46:14;;;;;;;0.90;0.90;;;17.40;99.90;;;;;;6125474;23;20921;-79
2023/09/19 01:48:47;;;;;;;1.90;1.20;;;17.50;99.90;;;;;;6125903;23;20531;-78
2023/09/19 01:51:20;;;;;;;1.90;1.13;;;17.50;99.90;;;;;;6125531;23;20436;-77
2023/09/19 01:53:56;;;;;;;1.10;1.00;;;17.50;99.90;;;;;;6125979;23;20393;-78
2023/09/19 01:56:29;;;;;;;0.80;0.80;;;17.50;99.90;;;;;;6125829;23;20396;-78
2023/09/19 01:58:59;;;;;;;0.80;0.80;;;17.50;99.90;;;;;;6125580;23;20425;-77
2023/09/19 02:01:28;;;;;;;1.23;1.10;;;17.50;99.90;;;;;;6125732;23;20717;-78
2023/09/19 02:03:56;;;;;;;1.87;1.13;;;17.50;99.90;;;;;;6125294;23;20784;-77
2023/09/19 02:06:25;;;;;;;1.00;1.00;;;17.60;99.90;;;;;;6125370;23;20487;-78
2023/09/19 02:08:51;;;;;;;1.90;1.33;;;17.50;99.90;;;;;;6124791;23;20441;-77
2023/09/19 02:11:18;;;;;;;0.83;0.83;;;17.50;99.90;;;;;;6125977;23;20401;-78
2023/09/19 02:13:45;;;;;;;1.53;1.10;;;17.50;99.90;;;;;;6125447;23;20412;-79
2023/09/19 02:16:12;;;;;;;1.07;0.70;;;17.50;99.90;;;;;;6125738;23;20405;-77
2023/09/19 02:18:40;;;;;;;0.97;0.97;;;17.50;99.90;;;;;;6125197;23;20652;-78
2023/09/19 02:21:08;;;;;;;1.50;1.40;;;17.40;99.90;;;;;;6125315;23;20409;-79
2023/09/19 02:23:35;;;;;;;1.43;0.90;;;17.40;99.90;;;;;;6124818;23;20413;-78
2023/09/19 02:26:03;;;;;;;3.23;0.80;;;17.40;99.90;;;;;;6126192;23;20428;-78
2023/09/19 02:28:31;;;;;;;1.43;1.27;;;17.40;99.90;;;;;;6130558;23;20836;-77
2023/09/19 02:30:59;;;;;;;0.90;0.90;;;17.40;99.90;;;;;;6127721;23;20413;-78
2023/09/19 02:33:26;;;;;;;0.80;0.80;;;17.40;99.90;;;;;;6127390;23;20408;-79
2023/09/19 02:35:58;;;;;;;1.53;1.37;;;17.40;99.90;;;;;;6126562;23;20924;-81
2023/09/19 02:38:25;;;;;;;1.67;0.87;;;17.40;99.90;;;;;;6127364;23;20720;-79
2023/09/19 02:40:52;;;;;;;1.00;0.97;;;17.40;99.90;;;;;;6127508;23;20447;-79
2023/09/19 02:43:20;;;;;;;1.10;1.10;;;17.40;99.90;;;;;;6130910;23;20412;-78
2023/09/19 02:45:49;;;;;;;3.13;1.30;;;17.40;99.90;;;;;;6132415;23;20421;-78
2023/09/19 02:48:16;;;;;;;2.80;1.40;;;17.30;99.90;;;;;;6132979;23;20436;-79
2023/09/19 02:50:44;;;;;;;1.60;1.40;;;17.30;99.90;;;;;;6128323;23;20397;-77
2023/09/19 02:53:12;;;;;;;1.40;1.00;;;17.30;99.90;;;;;;6127261;23;20405;-77
2023/09/19 02:55:40;;;;;;;1.27;1.17;;;17.40;99.90;;;;;;6127266;23;20432;-79
2023/09/19 02:58:09;;;;;;;2.53;0.90;;;17.30;99.90;;;;;;6128080;23;20484;-79
2023/09/19 03:00:36;;;;;;;1.00;0.90;;;17.30;99.90;;;;;;6128199;23;20401;-79
2023/09/19 03:03:05;;;;;;;1.00;0.97;;;17.30;99.90;;;;;;6126481;23;20709;-78
2023/09/19 03:05:35;;;;;;;1.00;1.00;;;17.20;99.90;;;;;;6130207;23;20459;-79
2023/09/19 03:08:04;;;;;;;1.70;0.93;;;17.30;99.90;;;;;;6126717;23;20467;-79
2023/09/19 03:10:32;;;;;;;1.27;1.17;;;17.20;99.90;;;;;;6126751;23;20501;-77
2023/09/19 03:12:59;;;;;;;2.00;1.23;;;17.20;99.90;;;;;;6127706;23;21078;-77
2023/09/19 03:15:26;;;;;;;1.80;0.80;;;17.20;99.90;;;;;;6127060;23;20417;-79
2023/09/19 03:17:53;;;;;;;1.40;1.30;;;17.30;99.90;;;;;;6126542;23;20404;-77
2023/09/19 03:20:21;;;;;;;2.20;0.90;;;17.50;99.90;;;;;;6128894;23;20401;-78
2023/09/19 03:22:47;;;;;;;1.70;1.10;;;17.30;99.90;;;;;;6127951;23;20402;-78
2023/09/19 03:25:15;;;;;;;1.30;1.20;;;17.30;99.90;;;;;;6127656;23;20511;-78
2023/09/19 03:27:43;;;;;;;1.13;1.13;;;17.30;99.90;;;;;;6126772;23;20409;-77
2023/09/19 03:30:13;;;;;;;1.13;1.10;;;17.30;99.90;;;;;;6126869;23;20476;-77
2023/09/19 03:32:45;;;;;;;1.53;1.00;;;17.30;99.90;;;;;;6129705;23;20794;-77
2023/09/19 03:35:14;;;;;;;3.57;1.30;;;17.30;99.90;;;;;;6130867;23;20467;-77
2023/09/19 03:37:41;;;;;;;2.43;1.63;;;17.30;99.90;;;;;;6128946;23;20415;-78
2023/09/19 03:40:10;;;;;;;1.40;1.30;;;17.30;99.90;;;;;;6126246;23;20447;-77
2023/09/19 03:42:39;;;;;;;1.50;1.30;;;17.30;99.90;;;;;;6127733;23;20411;-78
2023/09/19 03:45:11;;;;;;;0.90;0.90;;;17.30;99.90;;;;;;6126431;23;21071;-78
2023/09/19 03:47:38;;;;;;;1.23;1.13;;;17.30;99.90;;;;;;6126616;23;20419;-77
2023/09/19 03:50:07;;;;;;;1.30;1.20;;;17.30;99.90;;;;;;6125837;23;20451;-78
2023/09/19 03:52:33;;;;;;;1.40;1.30;;;17.30;99.90;;;;;;6125926;23;20397;-78
2023/09/19 03:55:01;;;;;;;1.17;1.17;;;17.30;99.90;;;;;;6125767;23;20427;-78
2023/09/19 03:57:27;;;;;;;1.50;1.23;;;17.30;99.90;;;;;;6128054;23;20440;-77
2023/09/19 03:59:55;;;;;;;1.90;1.80;;;17.50;99.90;;;;;;6126890;23;20397;-78
2023/09/19 04:02:24;;;;;;;1.40;1.30;;;17.50;99.90;;;;;;6125865;23;20409;-79
2023/09/19 04:04:51;;;;;;;2.70;1.50;;;17.40;99.90;;;;;;6125813;23;20437;-78
2023/09/19 04:07:19;;;;;;;1.33;1.10;;;17.20;99.90;;;;;;6125578;23;20744;-79
2023/09/19 04:09:45;;;;;;;2.93;1.60;;;17.20;99.90;;;;;;6124509;23;20750;-80
2023/09/19 04:12:12;;;;;;;1.43;1.23;;;17.50;99.90;;;;;;6127953;23;20410;-78
2023/09/19 04:14:41;;;;;;;1.70;1.20;;;17.30;99.90;;;;;;6127036;23;20427;-78
2023/09/19 04:17:10;;;;;;;1.10;1.10;;;17.20;99.90;;;;;;6125664;23;20905;-79
2023/09/19 04:19:38;;;;;;;1.87;1.40;;;17.20;99.90;;;;;;6126506;23;20453;-78
2023/09/19 04:22:05;;;;;;;1.70;1.50;;;17.20;99.90;;;;;;6128008;23;20432;-79
2023/09/19 04:24:32;;;;;;;2.90;1.30;;;17.30;99.90;;;;;;6127369;23;20956;-79
2023/09/19 04:26:59;;;;;;;2.60;1.50;;;17.30;99.90;;;;;;6127244;23;20534;-79
2023/09/19 04:29:29;;;;;;;2.10;1.30;;;17.50;99.90;;;;;;6127099;23;20430;-79
2023/09/19 04:31:57;;;;;;;3.97;1.37;;;17.30;99.90;;;;;;6127091;23;20408;-78
2023/09/19 04:34:24;;;;;;;3.00;1.30;;;17.30;99.90;;;;;;6127578;23;20471;-80
2023/09/19 04:36:52;;;;;;;2.20;1.50;;;17.30;99.90;;;;;;6128334;23;20405;-79
2023/09/19 04:39:20;;;;;;;1.40;1.30;;;17.30;99.90;;;;;;6127542;23;20408;-78
2023/09/19 04:41:47;;;;;;;1.60;1.50;;;17.30;99.90;;;;;;6128630;23;20405;-77
2023/09/19 04:44:14;;;;;;;1.30;1.30;;;17.30;99.90;;;;;;6128157;23;20514;-79
2023/09/19 04:46:41;;;;;;;5.20;1.40;;;17.30;99.90;;;;;;6128245;23;20492;-77
2023/09/19 04:49:07;;;;;;;1.87;1.70;;;17.30;99.90;;;;;;6146606;23;20417;-80
2023/09/19 04:51:36;;;;;;;1.43;1.33;;;17.30;99.90;;;;;;6140040;23;20411;-78
2023/09/19 04:54:04;;;;;;;4.87;1.50;;;17.30;99.90;;;;;;6129289;23;20409;-78
2023/09/19 04:56:31;;;;;;;1.40;1.30;;;17.20;99.90;;;;;;6127503;23;20428;-78
2023/09/19 04:58:58;;;;;;;1.70;1.20;;;17.20;99.90;;;;;;6126385;23;20407;-80
2023/09/19 05:01:25;;;;;;;3.00;1.60;;;17.20;99.90;;;;;;6126371;23;20888;-78
2023/09/19 05:03:52;;;;;;;3.37;1.60;;;17.10;99.90;;;;;;6125621;23;20987;-79
2023/09/19 05:06:20;;;;;;;3.30;3.00;;;17.00;99.90;;;;;;6126150;23;20486;-78
2023/09/19 05:08:47;;;;;;;2.80;2.57;;;17.00;99.90;;;;;;6128158;23;20401;-78
2023/09/19 05:11:15;;;;;;;3.47;2.90;;;17.20;99.90;;;;;;6131704;23;20883;-78
2023/09/19 05:13:43;;;;;;;2.57;2.07;;;17.00;99.90;;;;;;6126262;23;20401;-77
2023/09/19 05:16:10;;;;;;;1.73;1.40;;;17.00;99.90;;;;;;6125463;23;20504;-80
2023/09/19 05:18:37;;;;;;;1.93;1.83;;;17.00;99.90;;;;;;6126100;23;20463;-80
2023/09/19 05:21:04;;;;;;;1.70;1.60;;;16.90;99.90;;;;;;6125911;23;20396;-78
2023/09/19 05:23:31;;;;;;;1.60;1.50;;;17.10;99.90;;;;;;6126096;23;20996;-79
2023/09/19 05:25:59;;;;;;;1.60;1.50;;;16.90;99.90;;;;;;6133704;23;20829;-78
2023/09/19 05:28:27;;;;;;;1.83;1.67;;;17.10;99.90;;;;;;6133007;23;20456;-78
2023/09/19 05:30:54;;;;;;;1.87;1.63;;;16.80;99.90;;;;;;6126539;23;20784;-79
2023/09/19 05:33:21;;;;;;;2.70;1.87;;;16.90;99.90;;;;;;6125740;23;20412;-80
2023/09/19 05:35:49;;;;;;;2.10;2.00;;;16.90;99.90;;;;;;6126225;23;20425;-78
2023/09/19 05:38:18;;;;;;;2.20;1.80;;;16.90;99.90;;;;;;6126177;23;20397;-78
2023/09/19 05:40:46;;;;;;;5.77;2.47;;;16.90;99.90;;;;;;6126127;23;20424;-78
2023/09/19 05:43:14;;;;;;;2.20;1.80;;;17.00;99.90;;;;;;6125543;23;20897;-78
2023/09/19 05:45:42;;;;;;;1.53;1.43;;;16.70;99.90;;;;;;6125039;23;20828;-77
2023/09/19 05:48:09;;;;;;;2.47;1.50;;;16.50;99.90;;;;;;6125761;23;20413;-79
2023/09/19 05:50:36;;;;;;;1.87;1.77;;;16.50;99.90;;;;;;6126034;23;20460;-78
2023/09/19 05:53:04;;;;;;;1.70;1.60;;;16.40;99.90;;;;;;6125493;23;20494;-78
2023/09/19 05:55:31;;;;;;;2.17;1.97;;;16.30;99.90;;;;;;6125827;23;20417;-78
2023/09/19 05:57:57;;;;;;;2.00;1.70;;;16.20;99.90;;;;;;6126325;23;20401;-78
2023/09/19 06:00:27;;;;;;;3.57;2.00;;;16.20;99.90;;;;;;6129770;23;20401;-78
2023/09/19 06:02:56;;;;;;;3.37;2.20;;;16.20;99.90;;;;;;6140615;23;20409;-80
2023/09/19 06:05:23;;;;;;;2.53;2.33;;;16.20;99.90;;;;;;6133752;23;20421;-78
2023/09/19 06:07:52;;;;;;;2.03;1.93;;;16.20;99.90;;;;;;6147987;23;20405;-78
2023/09/19 06:10:20;;;;;;;4.33;2.00;;;16.30;99.90;;;;;;6141963;23;20441;-78
2023/09/19 06:12:48;;;;;;;3.17;2.50;;;16.20;99.90;;;;;;6134796;23;20744;-79
2023/09/19 06:15:16;;;;;;;3.00;2.53;;;16.30;99.90;;;;;;6132864;23;20429;-79
2023/09/19 06:17:43;;;;;;;2.60;2.40;;;16.20;99.90;;;;;;6125614;23;20520;-80
2023/09/19 06:20:14;;;;;;;2.50;2.30;;;16.20;99.90;;;;;;6127696;23;20411;-81
2023/09/19 06:22:42;;;;;;;2.40;2.20;;;16.10;99.90;;;;;;6129846;23;20381;-80
2023/09/19 06:25:11;;;;;;;2.23;2.03;;;16.10;99.90;;;;;;6129837;23;20764;-79
2023/09/19 06:27:38;;;;;;;2.70;2.20;;;16.00;99.90;;;;;;6129867;23;20471;-80
2023/09/19 06:30:07;;;;;;;3.67;2.00;;;16.00;99.90;;;;;;6136152;23;20469;-79
2023/09/19 06:32:34;;;;;;;2.27;2.00;;;16.10;99.90;;;;;;6133886;23;20401;-79
2023/09/19 06:35:01;;;;;;;3.83;2.40;;;16.10;99.90;;;;;;6134677;23;20421;-78
2023/09/19 06:37:30;;;;;;;2.40;2.20;;;16.10;99.90;;;;;;6138182;23;20404;-81
2023/09/19 06:39:57;;;;;;;2.30;2.10;;;15.90;99.90;;;;;;6132212;23;20397;-81
2023/09/19 06:42:24;;;;;;;2.33;2.13;;;16.20;99.90;;;;;;6131349;23;20416;-82
2023/09/19 06:44:51;;;;;;;3.73;2.30;;;16.20;99.90;;;;;;6128044;23;20425;-80
2023/09/19 06:47:18;;;;;;;2.10;1.97;;;16.20;99.90;;;;;;6126701;23;20449;-79
2023/09/19 06:49:44;;;;;;;3.13;2.50;;;16.20;99.90;;;;;;6131046;23;20447;-80
2023/09/19 06:52:11;;;;;;;3.20;2.20;;;16.30;99.90;;;;;;6131191;23;20436;-79
2023/09/19 06:54:39;;;;;;;2.50;2.03;;;16.30;99.90;;;;;;6130198;23;20504;-81
2023/09/19 06:57:09;;;;;;;4.17;2.10;;;16.30;99.90;;;;;;6130079;23;20488;-81
2023/09/19 06:59:37;;;;;;;4.43;2.40;;;16.30;99.90;;;;;;6129799;23;20412;-81
2023/09/19 07:02:05;;;;;;;3.13;2.10;;;16.40;99.90;;;;;;6129780;23;20413;-80
2023/09/19 07:04:32;;;;;;;2.00;1.80;;;16.40;99.90;;;;;;6130881;23;20808;-79
2023/09/19 07:06:59;;;;;;;1.80;1.67;;;16.50;99.90;;;;;;6126314;23;20412;-79
2023/09/19 07:09:27;;;;;;;3.40;1.93;;;16.60;99.90;;;;;;6125251;23;20397;-79
2023/09/19 07:11:56;;;;;;;2.57;2.37;;;16.60;99.90;;;;;;6130041;23;20405;-81
2023/09/19 07:14:22;;;;;;;3.57;1.90;;;16.70;99.90;;;;;;6132092;23;20932;-79
2023/09/19 07:16:50;;;;;;;2.90;2.30;;;16.70;99.90;;;;;;6127073;23;20408;-80
2023/09/19 07:19:17;;;;;;;3.27;2.20;;;16.80;99.90;;;;;;6126333;23;20409;-78
2023/09/19 07:21:44;;;;;;;2.03;1.93;;;16.90;99.90;;;;;;6124932;23;20404;-79
2023/09/19 07:24:10;;;;;;;4.73;2.73;;;16.90;99.90;;;;;;6125543;23;20768;-79
2023/09/19 07:26:37;;;;;;;2.90;2.47;;;16.90;99.90;;;;;;6127818;23;20401;-79
2023/09/19 07:29:06;;;;;;;2.33;2.20;;;17.00;99.90;;;;;;6129422;23;20408;-78
2023/09/19 07:31:33;;;;;;;2.57;1.77;;;17.10;99.90;;;;;;6125262;23;20440;-78
2023/09/19 07:34:00;;;;;;;2.70;1.90;;;17.10;99.90;;;;;;6124091;23;20779;-80
2023/09/19 07:36:29;;;;;;;4.37;1.90;;;17.10;99.90;;;;;;6125074;23;20409;-79
2023/09/19 07:38:57;;;;;;;3.33;2.40;;;17.00;99.90;;;;;;6124301;23;20796;-78
2023/09/19 07:41:25;;;;;;;3.00;2.10;;;17.10;99.90;;;;;;6125009;23;20397;-81
2023/09/19 07:43:52;;;;;;;3.60;2.30;;;17.40;99.90;;;;;;6124600;23;20407;-80
2023/09/19 07:46:20;;;;;;;2.30;1.97;;;17.30;99.90;;;;;;6125402;23;20405;-81
2023/09/19 07:48:48;;;;;;;1.90;1.80;;;17.30;99.90;;;;;;6125700;23;20756;-80
2023/09/19 07:51:15;;;;;;;3.77;1.93;;;17.40;99.90;;;;;;6128759;23;20527;-80
2023/09/19 07:53:43;;;;;;;2.37;2.20;;;17.50;99.90;;;;;;6127870;23;20913;-80
2023/09/19 07:56:11;;;;;;;1.80;1.70;;;17.50;99.90;;;;;;6126979;23;20476;-82
2023/09/19 07:58:41;;;;;;;2.20;1.93;;;17.60;99.90;;;;;;6129336;23;20721;-80
2023/09/19 08:01:09;;;;;;;4.23;2.50;;;17.80;99.90;;;;;;6129104;23;20439;-80
2023/09/19 08:03:40;;;;;;;3.70;1.80;;;17.80;99.90;;;;;;6127906;23;20499;-79
2023/09/19 08:06:07;;;;;;;1.63;1.53;;;17.90;99.90;;;;;;6128366;23;20991;-82
2023/09/19 08:08:36;;;;;;;2.20;2.00;;;17.90;99.90;;;;;;6128123;23;20747;-79
2023/09/19 08:11:10;;;;;;;2.13;1.93;;;18.30;99.90;;;;;;6127691;23;20440;-80
2023/09/19 08:13:37;;;;;;;2.30;2.07;;;18.10;99.90;;;;;;6126579;23;20401;-78
2023/09/19 08:16:04;;;;;;;2.10;2.00;;;18.50;99.90;;;;;;6125983;23;20425;-80
2023/09/19 08:18:31;;;;;;;2.00;1.77;;;18.70;99.90;;;;;;6126236;23;20405;-79
2023/09/19 08:21:00;;;;;;;2.70;2.27;;;18.80;99.90;;;;;;6126469;23;20397;-78
2023/09/19 08:23:27;;;;;;;5.10;2.10;;;18.90;99.90;;;;;;6125544;23;20481;-79
2023/09/19 08:25:58;;;;;;;1.70;1.60;;;18.90;99.90;;;;;;6125345;23;20425;-81
2023/09/19 08:28:24;;;;;;;2.20;1.90;;;19.00;99.90;;;;;;6126568;23;20378;-79
2023/09/19 08:30:52;;;;;;;2.47;1.80;;;19.00;99.90;;;;;;6126898;23;20441;-79
2023/09/19 08:33:19;;;;;;;3.70;2.03;;;19.10;99.90;;;;;;6128505;23;20417;-81
2023/09/19 08:35:46;;;;;;;2.03;1.50;;;19.20;99.90;;;;;;6125509;23;20468;-77
2023/09/19 08:38:14;;;;;;;2.80;1.93;;;19.20;99.90;;;;;;6127977;23;20746;-81
2023/09/19 08:40:44;;;;;;;1.50;1.43;;;19.40;99.90;;;;;;6128690;23;20412;-82
2023/09/19 08:43:11;;;;;;;3.90;1.57;;;19.40;99.90;;;;;;6128274;23;20417;-83
2023/09/19 08:45:38;;;;;;;1.80;1.43;;;19.30;99.90;;;;;;6130220;23;20459;-80
2023/09/19 08:48:18;;;;;;;3.57;1.77;;;19.80;99.90;;;;;;6136111;23;20431;-81
2023/09/19 08:50:50;;;;;;;1.90;1.80;;;19.80;99.90;;;;;;6129065;23;20435;-81
2023/09/19 08:53:27;;;;;;;3.63;2.10;;;19.80;99.90;;;;;;6126655;23;20481;-80
2023/09/19 08:55:56;;;;;;;1.60;1.30;;;20.00;99.90;;;;;;6126609;23;20425;-78
2023/09/19 08:58:27;;;;;;;2.30;1.80;;;19.90;99.90;;;;;;6125815;23;20789;-79
2023/09/19 09:00:55;;;;;;;1.60;1.50;;;20.00;99.90;;;;;;6129792;23;20449;-80
2023/09/19 09:03:24;;;;;;;1.87;1.20;;;20.00;99.90;;;;;;6131359;23;20412;-80
2023/09/19 09:05:52;;;;;;;1.73;1.23;;;19.90;99.90;;;;;;6130714;23;20449;-80
2023/09/19 09:08:22;;;;;;;2.90;1.47;;;20.00;99.90;;;;;;6131984;23;20433;-81
2023/09/19 09:10:50;;;;;;;4.07;1.60;;;20.30;99.90;;;;;;6131750;23;20441;-79
2023/09/19 09:13:18;;;;;;;4.00;1.73;;;20.50;99.90;;;;;;6132014;23;20473;-82
2023/09/19 09:15:45;;;;;;;5.70;1.43;;;20.40;99.90;;;;;;6130819;23;20500;-80
2023/09/19 09:18:13;;;;;;;2.17;1.17;;;20.40;99.90;;;;;;6131051;23;20432;-81
2023/09/19 09:20:40;;;;;;;1.83;1.47;;;20.60;99.90;;;;;;6132455;23;20405;-79
2023/09/19 09:23:07;;;;;;;1.50;1.50;;;20.50;99.90;;;;;;6132509;23;20409;-79
2023/09/19 09:25:54;;;;;;;1.27;1.27;;;20.50;99.90;;;;;;6131648;23;20409;-79
2023/09/19 09:28:22;;;;;;;1.83;1.73;;;20.80;99.90;;;;;;6132144;23;20726;-79
2023/09/19 09:30:50;;;;;;;1.83;1.57;;;20.70;99.90;;;;;;6131433;23;20437;-79
2023/09/19 09:33:17;;;;;;;1.77;1.67;;;20.70;99.90;;;;;;6133714;23;20493;-79
2023/09/19 09:35:52;;;;;;;1.97;1.57;;;20.80;99.90;;;;;;6129476;23;20433;-80
2023/09/19 09:38:20;;;;;;;2.50;1.43;;;21.20;99.90;;;;;;6130649;23;20400;-80
2023/09/19 09:40:52;;;;;;;2.30;1.40;;;21.40;99.90;;;;;;6126748;23;20467;-80
2023/09/19 09:43:35;;;;;;;3.43;1.40;;;21.70;99.90;;;;;;6128981;23;20385;-80
2023/09/19 09:51:59;;;;;;;2.10;1.40;;;21.80;99.90;;;;;;5092241;28;20571;-79
2023/09/19 09:54:33;;;;;;;1.80;1.70;;;21.90;99.90;;;;;;5086596;28;20477;-80
2023/09/19 09:57:13;;;;;;;2.70;1.37;;;21.60;99.90;;;;;;5068796;28;20467;-79
2023/09/19 09:59:51;;;;;;;1.50;1.40;;;22.10;99.90;;;;;;5067657;28;20453;-79
2023/09/19 10:02:25;;;;;;;1.60;1.33;;;22.20;99.90;;;;;;5059408;28;20998;-79
2023/09/19 10:04:59;;;;;;;2.17;1.97;;;22.30;99.90;;;;;;5070911;28;20469;-80
2023/09/19 10:07:32;;;;;;;1.90;1.63;;;22.40;99.90;;;;;;5073471;28;20448;-79
2023/09/19 10:10:04;;;;;;;2.23;1.40;;;22.40;99.90;;;;;;5076155;28;20518;-82
2023/09/19 10:12:34;;;;;;;1.60;1.50;;;21.80;99.90;;;;;;5078317;28;20897;-82
2023/09/19 10:15:03;;;;;;;1.63;1.30;;;21.70;99.90;;;;;;5078832;28;20467;-83
2023/09/19 10:17:31;;;;;;;2.70;1.20;;;21.60;99.90;;;;;;5087020;28;20635;-82
2023/09/19 10:20:01;;;;;;;2.80;1.70;;;21.60;99.90;;;;;;5072542;28;20808;-82
2023/09/19 10:22:32;;;;;;;1.43;1.10;;;21.60;99.90;;;;;;5074309;28;20827;-82
2023/09/19 10:25:00;;;;;;;4.40;1.30;;;21.30;99.90;;;;;;5071390;28;20464;-82
2023/09/19 10:27:29;;;;;;;1.63;1.53;;;21.00;99.90;;;;;;5072464;28;20449;-82
2023/09/19 10:29:59;;;;;;;6.23;1.57;;;21.60;99.90;;;;;;5071941;28;20491;-82
2023/09/19 10:32:29;;;;;;;1.80;1.70;;;21.70;99.90;;;;;;5071898;28;20455;-81
2023/09/19 10:34:57;;;;;;;3.57;1.73;;;22.30;99.90;;;;;;5072368;28;20465;-80
2023/09/19 10:37:27;;;;;;;2.00;1.30;;;22.20;99.90;;;;;;5072554;28;20443;-82
2023/09/19 10:39:57;;;;;;;2.43;1.30;;;22.20;99.90;;;;;;5072964;28;20433;-82
2023/09/19 10:42:28;;;;;;;1.77;1.40;;;22.10;99.90;;;;;;5080671;28;20469;-84
2023/09/19 10:44:59;;;;;;;1.53;1.23;;;21.80;99.90;;;;;;5068124;28;20468;-82
2023/09/19 10:47:26;;;;;;;2.63;1.93;;;21.70;99.90;;;;;;5084315;28;20480;-83
2023/09/19 10:49:53;;;;;;;1.90;1.50;;;21.80;99.90;;;;;;5091473;28;20436;-84
2023/09/19 10:52:24;;;;;;;2.33;1.50;;;22.20;99.90;;;;;;5091129;28;20536;-86
2023/09/19 10:54:57;;;;;;;1.73;1.40;;;22.70;99.90;;;;;;5082626;28;20449;-82
2023/09/19 10:57:27;;;;;;;1.40;1.20;;;23.10;99.90;;;;;;5052609;28;21013;-81
2023/09/19 11:00:21;;;;;;;1.40;1.30;;;23.40;99.90;;;;;;5063144;28;20528;-83
2023/09/19 11:03:19;;;;;;;1.20;1.10;;;23.10;99.90;;;;;;5060200;28;20463;-80
2023/09/19 11:06:05;;;;;;;2.57;1.43;;;22.90;99.90;;;;;;5058084;28;20488;-83
2023/09/19 11:08:33;;;;;;;2.20;1.83;;;23.00;99.90;;;;;;5057635;28;20441;-81
2023/09/19 11:11:03;;;;;;;2.13;1.93;;;22.90;99.90;;;;;;5056890;28;20477;-81
2023/09/19 11:13:34;;;;;;;2.80;2.20;;;22.60;99.90;;;;;;5057461;28;20856;-79
2023/09/19 11:16:05;;;;;;;1.97;1.30;;;22.70;99.90;;;;;;5057383;28;20461;-83
2023/09/19 11:18:55;;;;;;;3.20;1.63;;;22.60;99.90;;;;;;5051501;28;20676;-80
2023/09/19 11:21:42;;;;;;;1.50;1.17;;;22.70;99.90;;;;;;5052631;28;20435;-81
2023/09/19 11:24:36;;;;;;;1.80;1.23;;;22.90;99.90;;;;;;5041227;28;20460;-83
2023/09/19 11:27:19;;;;;;;1.47;1.33;;;23.00;99.90;;;;;;5053507;28;20946;-81
2023/09/19 11:29:49;;;;;;;1.50;1.40;;;23.70;99.90;;;;;;5052499;28;20444;-81
2023/09/19 11:32:17;;;;;;;1.67;1.30;;;23.80;99.90;;;;;;5045823;28;20514;-81
2023/09/19 11:34:50;;;;;;;1.10;1.10;;;23.50;99.90;;;;;;5056318;28;20457;-81
2023/09/19 11:38:15;;;;;;;2.10;1.40;;;23.50;99.90;;;;;;5067116;28;20441;-81
2023/09/19 11:40:55;;;;;;;1.60;1.50;;;23.80;99.90;;;;;;5070754;28;20450;-81
2023/09/19 11:43:34;;;;;;;1.53;1.27;;;24.40;99.90;;;;;;5059499;28;20440;-80
2023/09/19 11:46:08;;;;;;;1.80;1.20;;;;;;;;;;5065293;28;20951;-80
2023/09/19 11:48:45;;;;;;;1.33;1.23;;;23.80;99.90;;;;;;5053862;28;20519;-81
2023/09/19 11:51:22;;;;;;;1.53;1.27;;;23.90;99.90;;;;;;5055225;28;20865;-82
2023/09/19 11:53:50;;;;;;;1.20;1.10;;;24.50;99.90;;;;;;5058336;28;20918;-81
2023/09/19 11:56:18;;;;;;;1.23;1.13;;;24.90;99.90;;;;;;5057316;28;20926;-82
2023/09/19 11:58:45;;;;;;;1.30;1.20;;;24.80;99.90;;;;;;5055795;28;20817;-84
2023/09/19 12:01:24;;;;;;;1.90;1.17;;;25.00;99.90;;;;;;5056836;28;20475;-83
2023/09/19 12:03:56;;;;;;;0.97;0.87;;;25.00;99.90;;;;;;5056196;28;20445;-82
2023/09/19 12:06:24;;;;;;;1.67;1.00;;;24.50;99.90;;;;;;5057207;28;20669;-81
2023/09/19 12:08:53;;;;;;;1.23;1.13;;;24.70;99.90;;;;;;5057302;28;20449;-80
2023/09/19 12:11:22;;;;;;;0.90;0.90;;;24.90;99.90;;;;;;5057361;28;21000;-80
2023/09/19 12:13:51;;;;;;;1.57;1.07;;;24.70;99.90;;;;;;5058087;28;20450;-80
2023/09/19 12:16:22;;;;;;;1.77;1.30;;;24.70;99.90;;;;;;5059031;28;20456;-82
2023/09/19 12:18:50;;;;;;;1.33;1.10;;;24.80;99.90;;;;;;5060263;28;20434;-81
2023/09/19 12:21:24;;;;;;;1.47;1.03;;;25.30;99.90;;;;;;5060371;28;20524;-82
2023/09/19 12:24:11;;;;;;;1.70;1.10;;;25.30;99.90;;;;;;5059875;28;20518;-80
2023/09/19 12:26:43;;;;;;;1.10;1.10;;;25.10;99.90;;;;;;5059630;28;20437;-81
2023/09/19 12:29:18;;;;;;;1.63;1.20;;;25.20;99.90;;;;;;5060628;28;20446;-82
2023/09/19 12:31:57;;;;;;;1.33;1.07;;;25.20;99.90;;;;;;5060099;28;20477;-81
2023/09/19 12:34:27;;;;;;;1.80;1.60;;;24.90;99.90;;;;;;5060686;28;20457;-79
2023/09/19 12:37:11;;;;;;;1.43;1.30;;;24.80;99.90;;;;;;5060319;28;20481;-82
2023/09/19 12:39:38;;;;;;;1.50;1.00;;;;;;;;;;5061965;28;20434;-81
2023/09/19 12:42:08;;;;;;;1.23;1.13;;;25.60;99.90;;;;;;5062138;28;20444;-81
2023/09/19 12:44:36;;;;;;;1.77;1.30;;;25.90;99.90;;;;;;5060843;28;21032;-82
2023/09/19 12:47:15;;;;;;;1.30;1.20;;;26.50;99.90;;;;;;5061759;28;20442;-82
2023/09/19 12:50:16;;;;;;;1.70;1.60;;;26.80;99.90;;;;;;5060038;28;20426;-81
2023/09/19 12:52:47;;;;;;;0.97;0.97;;;27.20;99.90;;;;;;5059673;28;20430;-82
2023/09/19 12:55:24;;;;;;;2.80;1.13;;;26.70;99.90;;;;;;5061842;28;20461;-81
2023/09/19 12:58:09;;;;;;;3.23;1.13;;;26.40;99.90;;;;;;5059871;28;20492;-81
2023/09/19 13:00:37;;;;;;;1.73;0.90;;;26.10;99.90;;;;;;5058593;28;20819;-81
2023/09/19 13:03:24;;;;;;;1.20;1.07;;;26.10;99.90;;;;;;5046671;28;20852;-80
2023/09/19 13:05:53;;;;;;;1.60;1.50;;;26.30;99.90;;;;;;5039571;28;20458;-81
2023/09/19 13:08:23;;;;;;;1.47;1.37;;;26.40;99.90;;;;;;5039458;28;20445;-81